KFQD

Details ICAO KFQD
Name RUTHERFORD CO MARCHMAN FIELD
Region United States
Timezone America/New_York (UTC-5.0)
Plans Departing 4
Arriving 4
Stats Elevation 1,078 ft / 329 m (AMSL)
Location 35.428055° -81.935001°
Runways 1
Magnetic Variation 7.065° W
Sunrise 2017-12-16 12:31:41 UTC / 2017-12-16 07:31:41 Local
Sunset 2017-12-16 22:18:03 UTC / 2017-12-16 17:18:03 Local
Advertisement - Login to hide

Runways

ID Width Length Bearing (true) Bearing (mag) Surface Threshold Offset Overrun Length
01 100 ft / 30 m 5,010 ft / 1,527 m 14.93° 22.00° Asphalt 0 ft / 0 m 0 ft / 0 m
19 100 ft / 30 m 5,010 ft / 1,527 m 194.93° 202.00° Asphalt 0 ft / 0 m 0 ft / 0 m

Map

Weather


0- 5 10 15 20 25 30 35+ Temperature / ° C

Clouds and Precipitation
Forecast for 2017-12-16 18:00 UTC. Updated a few seconds ago

Ground ~20,000 ft ~40,000 ft Winds

METAR

KFQD 161700Z AUTO 17004KT 10SM CLR 06/M05 A3026 RMK AO2 T00621055

TAF

Not found

Frequencies

Recorded 118.27 MHz AWOS 3
Approach 119.40 MHz RALEIGH APP/DEP
Unicom 122.80 MHz CTAF/UNICOM
Warning: Do not use this data for real-world aviation or navigation. No guarantee of current accuracy is given.